Kem'- Port, Russia
Current Conditions -  °F | °C
As of 9:20 AM on Wednesday 22 Oct 2014 (Local Time) from EFKS Reporting Station
Snow Showers Snow Showers  
Wind Chill:   Ceiling: 200
Heat Index:   Visibility: 6mi
Dew Point:   Wind: 1mph
Humidity: 85%   Direction: 150°SSE
Pressure: 30.36"   Gusts: NA
Location:  64.98°N, 34.8°E
Report Text: EFKS 220620Z AUTO 15001KT 9999 -SHSN BKN002 M16/M18 Q1028
Loading
Personal Weather Stations






























Interactive Weather Map
Tropical Storm Tracking
New forecast layout! Learn more

10-Day Weather Forecast

Advertisements
Track Severe Weather on mobile